Time;durP1;ratioP1;P1;durP2;ratioP2;P2;SDS_P1;SDS_P2;PMS_P1;PMS_P2;Temp;Humidity;BMP_temperature;BMP_pressure;BME280_temperature;BME280_humidity;BME280_pressure;Samples;Min_cycle;Max_cycle;Signal;HPM_P1;HPM_P2
2021/01/24 00:02:25;;;;;;;9.80;6.13;;;;;;;;;;5014489;28;20497;-74
2021/01/24 00:04:51;;;;;;;7.80;6.50;;;;;;;;;;5014224;28;20545;-73
2021/01/24 00:07:17;;;;;;;6.37;5.27;;;;;;;;;;5014124;28;20892;-74
2021/01/24 00:09:43;;;;;;;9.87;5.77;;;;;;;;;;5012638;28;20491;-74
2021/01/24 00:12:09;;;;;;;10.13;6.63;;;;;;;;;;5014620;28;20413;-74
2021/01/24 00:14:35;;;;;;;8.37;6.50;;;;;;;;;;5013506;28;20874;-74
2021/01/24 00:17:01;;;;;;;9.40;6.17;;;;;;;;;;5008437;28;20416;-74
2021/01/24 00:19:27;;;;;;;7.47;5.80;;;;;;;;;;5010395;28;20440;-73
2021/01/24 00:21:53;;;;;;;7.60;5.23;;;;;;;;;;5014546;28;20404;-74
2021/01/24 00:24:19;;;;;;;7.73;5.23;;;;;;;;;;5013525;28;20523;-74
2021/01/24 00:26:45;;;;;;;7.47;5.10;;;;;;;;;;5013656;28;20827;-74
2021/01/24 00:29:11;;;;;;;8.47;5.37;;;;;;;;;;5013276;28;20473;-74
2021/01/24 00:31:37;;;;;;;6.80;5.00;;;;;;;;;;5013326;28;20430;-74
2021/01/24 00:34:03;;;;;;;8.60;5.53;;;;;;;;;;5012997;28;20874;-74
2021/01/24 00:36:29;;;;;;;9.10;5.53;;;;;;;;;;5014337;28;20774;-74
2021/01/24 00:38:55;;;;;;;5.87;4.20;;;;;;;;;;5012509;28;20783;-74
2021/01/24 00:41:21;;;;;;;8.10;4.07;;;;;;;;;;5014240;28;20410;-74
2021/01/24 00:43:47;;;;;;;6.93;5.10;;;;;;;;;;5011907;28;20432;-73
2021/01/24 00:46:13;;;;;;;6.20;4.40;;;;;;;;;;5013932;28;20425;-74
2021/01/24 00:48:39;;;;;;;6.90;4.60;;;;;;;;;;5013184;28;20495;-74
2021/01/24 00:51:06;;;;;;;6.90;4.40;;;;;;;;;;5013920;28;20458;-74
2021/01/24 00:53:32;;;;;;;6.23;3.77;;;;;;;;;;5011535;28;20514;-74
2021/01/24 00:55:58;;;;;;;4.10;3.70;;;;;;;;;;5013740;28;20420;-74
2021/01/24 00:58:24;;;;;;;7.50;4.10;;;;;;;;;;5013101;28;20431;-74
2021/01/24 01:00:51;;;;;;;6.00;4.80;;;;;;;;;;5013647;28;20411;-74
2021/01/24 01:03:17;;;;;;;4.60;3.87;;;;;;;;;;5012609;28;20770;-74
2021/01/24 01:05:44;;;;;;;7.97;5.57;;;;;;;;;;5013556;28;20437;-74
2021/01/24 01:08:10;;;;;;;5.60;4.00;;;;;;;;;;5011171;28;20436;-74
2021/01/24 01:10:37;;;;;;;8.80;5.63;;;;;;;;;;5013737;28;20884;-74
2021/01/24 01:13:03;;;;;;;6.83;4.63;;;;;;;;;;5012498;28;20410;-74
2021/01/24 01:15:29;;;;;;;5.70;4.07;;;;;;;;;;5013091;28;20457;-74
2021/01/24 01:17:55;;;;;;;5.07;3.97;;;;;;;;;;5009098;28;20428;-74
2021/01/24 01:20:21;;;;;;;6.70;4.63;;;;;;;;;;5013496;28;20418;-74
2021/01/24 01:22:47;;;;;;;4.80;4.20;;;;;;;;;;5013635;28;20413;-74
2021/01/24 01:25:13;;;;;;;5.53;4.40;;;;;;;;;;5012408;28;20961;-73
2021/01/24 01:27:39;;;;;;;7.80;4.83;;;;;;;;;;5010408;28;20840;-74
2021/01/24 01:30:06;;;;;;;6.27;4.00;;;;;;;;;;5010233;28;20547;-74
2021/01/24 01:32:32;;;;;;;5.63;3.43;;;;;;;;;;5012896;28;20464;-74
2021/01/24 01:34:58;;;;;;;7.33;4.77;;;;;;;;;;5012234;28;20449;-74
2021/01/24 01:37:24;;;;;;;5.13;3.40;;;;;;;;;;5013319;28;20485;-74
2021/01/24 01:39:50;;;;;;;6.17;4.07;;;;;;;;;;5011995;28;20529;-74
2021/01/24 01:42:17;;;;;;;6.30;3.73;;;;;;;;;;5013161;28;20409;-74
2021/01/24 01:44:44;;;;;;;3.60;2.80;;;;;;;;;;5010895;28;20503;-74
2021/01/24 01:47:10;;;;;;;4.60;3.50;;;;;;;;;;5012478;28;20439;-74
2021/01/24 01:49:37;;;;;;;4.20;2.90;;;;;;;;;;5010161;28;20893;-74
2021/01/24 01:52:03;;;;;;;5.13;3.10;;;;;;;;;;5011924;28;20781;-74
2021/01/24 01:54:29;;;;;;;5.77;3.73;;;;;;;;;;5012054;28;20457;-74
2021/01/24 01:56:55;;;;;;;3.60;3.00;;;;;;;;;;5013330;28;20414;-74
2021/01/24 01:59:24;;;;;;;4.80;3.33;;;;;;;;;;5011374;28;20434;-74
2021/01/24 02:02:07;;;;;;;2.83;2.07;;;;;;;;;;5012897;28;20881;-74
2021/01/24 02:04:54;;;;;;;3.90;2.50;;;;;;;;;;5011910;28;20528;-74
2021/01/24 02:07:22;;;;;;;3.53;1.93;;;;;;;;;;5012859;28;20448;-77
2021/01/24 02:09:51;;;;;;;2.33;2.03;;;;;;;;;;5011435;28;20460;-74
2021/01/24 02:12:17;;;;;;;2.80;1.67;;;;;;;;;;5013126;28;20413;-74
2021/01/24 02:14:51;;;;;;;2.90;1.47;;;;;;;;;;5011936;28;20486;-74
2021/01/24 02:17:18;;;;;;;2.67;1.57;;;;;;;;;;5013388;28;20891;-74
2021/01/24 02:19:51;;;;;;;1.93;1.67;;;;;;;;;;5011426;28;20873;-74
2021/01/24 02:22:17;;;;;;;2.57;1.70;;;;;;;;;;5012252;28;20517;-74
2021/01/24 02:24:48;;;;;;;1.93;1.43;;;;;;;;;;5003406;28;20502;-74
2021/01/24 02:27:36;;;;;;;1.50;1.10;;;;;;;;;;5012917;28;20410;-74
2021/01/24 02:30:08;;;;;;;2.13;1.20;;;;;;;;;;5011610;28;20471;-74
2021/01/24 02:32:35;;;;;;;1.50;1.20;;;;;;;;;;5012827;28;20405;-74
2021/01/24 02:35:02;;;;;;;1.80;1.33;;;;;;;;;;5010062;28;20450;-74
2021/01/24 02:37:28;;;;;;;1.40;0.90;;;;;;;;;;5011798;28;20545;-74
2021/01/24 02:39:55;;;;;;;1.40;1.10;;;;;;;;;;5011550;28;20447;-74
2021/01/24 02:42:21;;;;;;;1.70;1.10;;;;;;;;;;5011835;28;20428;-73
2021/01/24 02:44:48;;;;;;;1.93;1.13;;;;;;;;;;5011752;28;21026;-74
2021/01/24 02:47:15;;;;;;;1.50;1.10;;;;;;;;;;5012576;28;20492;-74
2021/01/24 02:49:42;;;;;;;1.57;1.13;;;;;;;;;;5011621;28;20560;-73
2021/01/24 02:52:08;;;;;;;1.30;1.00;;;;;;;;;;5015471;28;20402;-74
2021/01/24 02:54:34;;;;;;;1.50;1.13;;;;;;;;;;5015043;28;20447;-74
2021/01/24 02:57:00;;;;;;;2.17;1.40;;;;;;;;;;5015443;28;20914;-74
2021/01/24 02:59:27;;;;;;;1.50;1.10;;;;;;;;;;5012355;28;20511;-74
2021/01/24 03:01:53;;;;;;;1.40;1.00;;;;;;;;;;5015086;28;20985;-74
2021/01/24 03:04:19;;;;;;;2.80;1.10;;;;;;;;;;5015154;28;20514;-74
2021/01/24 03:06:45;;;;;;;1.87;1.03;;;;;;;;;;5015303;28;20454;-74
2021/01/24 03:09:12;;;;;;;1.50;1.10;;;;;;;;;;5014795;28;20929;-74
2021/01/24 03:11:39;;;;;;;2.03;1.40;;;;;;;;;;5015898;28;20759;-74
2021/01/24 03:14:09;;;;;;;1.40;1.10;;;;;;;;;;5015055;28;20469;-75
2021/01/24 03:16:36;;;;;;;2.23;1.43;;;;;;;;;;5012796;28;20480;-74
2021/01/24 03:19:02;;;;;;;1.40;1.00;;;;;;;;;;5015813;28;20413;-74
2021/01/24 03:21:29;;;;;;;1.90;1.37;;;;;;;;;;5015247;28;20419;-73
2021/01/24 03:23:56;;;;;;;1.63;1.30;;;;;;;;;;5015824;28;20430;-73
2021/01/24 03:26:22;;;;;;;1.40;1.00;;;;;;;;;;5014468;28;20425;-73
2021/01/24 03:28:48;;;;;;;1.60;1.10;;;;;;;;;;5014806;28;20425;-73
2021/01/24 03:31:14;;;;;;;1.27;0.90;;;;;;;;;;5013554;28;20472;-73
2021/01/24 03:33:41;;;;;;;1.40;1.00;;;;;;;;;;5015261;28;20412;-73
2021/01/24 03:36:07;;;;;;;2.60;1.73;;;;;;;;;;5014317;28;20428;-73
2021/01/24 03:38:33;;;;;;;1.70;0.90;;;;;;;;;;5015011;28;20413;-73
2021/01/24 03:40:59;;;;;;;2.97;1.10;;;;;;;;;;5015890;28;20439;-75
2021/01/24 03:43:25;;;;;;;1.93;1.00;;;;;;;;;;5017063;28;20436;-75
2021/01/24 03:45:51;;;;;;;2.00;1.00;;;;;;;;;;5017714;28;20542;-75
2021/01/24 03:48:17;;;;;;;2.20;1.23;;;;;;;;;;5015703;28;20477;-75
2021/01/24 03:50:43;;;;;;;1.50;1.20;;;;;;;;;;5014703;28;20466;-74
2021/01/24 03:53:09;;;;;;;1.37;1.00;;;;;;;;;;5014665;28;20418;-73
2021/01/24 03:55:35;;;;;;;1.40;0.90;;;;;;;;;;5013949;28;20447;-73
2021/01/24 03:58:01;;;;;;;1.30;1.00;;;;;;;;;;5015237;28;20400;-73
2021/01/24 04:00:27;;;;;;;1.40;1.00;;;;;;;;;;5010959;28;20436;-74
2021/01/24 04:02:53;;;;;;;1.40;1.00;;;;;;;;;;5014619;28;20418;-74
2021/01/24 04:05:19;;;;;;;1.33;0.93;;;;;;;;;;5013853;28;20797;-74
2021/01/24 04:07:45;;;;;;;1.40;1.00;;;;;;;;;;5014928;28;20439;-74
2021/01/24 04:10:12;;;;;;;1.87;1.10;;;;;;;;;;5013388;28;20512;-74
2021/01/24 04:12:38;;;;;;;2.00;1.20;;;;;;;;;;5015021;28;20407;-74
2021/01/24 04:15:04;;;;;;;1.40;1.10;;;;;;;;;;5013485;28;20509;-75
2021/01/24 04:17:30;;;;;;;1.47;1.10;;;;;;;;;;5014522;28;20438;-74
2021/01/24 04:19:56;;;;;;;1.73;1.30;;;;;;;;;;5012984;28;20457;-75
2021/01/24 04:22:22;;;;;;;1.50;1.00;;;;;;;;;;5014342;28;20931;-75
2021/01/24 04:24:48;;;;;;;1.40;1.00;;;;;;;;;;5013172;28;20420;-75
2021/01/24 04:27:14;;;;;;;1.40;1.03;;;;;;;;;;5014876;28;20413;-74
2021/01/24 04:29:40;;;;;;;1.40;1.10;;;;;;;;;;5011554;28;20507;-74
2021/01/24 04:32:06;;;;;;;1.40;1.00;;;;;;;;;;5014424;28;20405;-74
2021/01/24 04:34:32;;;;;;;1.40;0.93;;;;;;;;;;5013414;28;20941;-74
2021/01/24 04:36:58;;;;;;;1.67;0.90;;;;;;;;;;5013311;28;20424;-74
2021/01/24 04:39:24;;;;;;;1.70;1.00;;;;;;;;;;5010973;28;20584;-74
2021/01/24 04:41:50;;;;;;;1.90;1.00;;;;;;;;;;5012381;28;20513;-74
2021/01/24 04:44:16;;;;;;;1.30;0.97;;;;;;;;;;5014021;28;20436;-74
2021/01/24 04:46:43;;;;;;;5.87;1.20;;;;;;;;;;5013422;28;20492;-74
2021/01/24 04:49:09;;;;;;;1.63;0.90;;;;;;;;;;5014213;28;20854;-74
2021/01/24 04:51:35;;;;;;;1.70;1.10;;;;;;;;;;5012557;28;20433;-74
2021/01/24 04:54:02;;;;;;;1.30;0.90;;;;;;;;;;5013777;28;20447;-74
2021/01/24 04:56:29;;;;;;;2.20;1.07;;;;;;;;;;5012232;28;20424;-74
2021/01/24 04:58:55;;;;;;;1.40;1.00;;;;;;;;;;5014046;28;20409;-74
2021/01/24 05:01:22;;;;;;;1.40;1.00;;;;;;;;;;5010397;28;20442;-74
2021/01/24 05:03:51;;;;;;;1.50;1.10;;;;;;;;;;5013570;28;20484;-74
2021/01/24 05:06:17;;;;;;;1.30;0.83;;;;;;;;;;5012736;28;20468;-74
2021/01/24 05:08:46;;;;;;;1.60;1.27;;;;;;;;;;5013914;28;20418;-74
2021/01/24 05:11:13;;;;;;;2.70;1.10;;;;;;;;;;5011975;28;20462;-74
2021/01/24 05:13:39;;;;;;;1.30;0.90;;;;;;;;;;5009790;28;20577;-75
2021/01/24 05:16:06;;;;;;;2.47;1.03;;;;;;;;;;5051206;23;20489;-71
2021/01/24 05:18:32;;;;;;;1.60;1.07;;;;;;;;;;5033125;28;20904;-71
2021/01/24 05:20:58;;;;;;;1.70;0.90;;;;;;;;;;5031943;28;20507;-71
2021/01/24 05:23:25;;;;;;;1.90;1.03;;;;;;;;;;5032639;28;20416;-70
2021/01/24 05:25:54;;;;;;;1.30;0.90;;;;;;;;;;5032074;28;20446;-71
2021/01/24 05:28:21;;;;;;;1.70;1.10;;;;;;;;;;5033125;28;20425;-71
2021/01/24 05:30:48;;;;;;;1.40;0.90;;;;;;;;;;5031830;28;20536;-70
2021/01/24 05:33:17;;;;;;;1.80;1.00;;;;;;;;;;5032683;28;20455;-71
2021/01/24 05:35:48;;;;;;;1.63;1.17;;;;;;;;;;5032051;28;20519;-71
2021/01/24 05:38:23;;;;;;;1.40;0.90;;;;;;;;;;5032736;28;20415;-71
2021/01/24 05:40:49;;;;;;;1.77;1.30;;;;;;;;;;5030900;28;20429;-70
2021/01/24 05:43:17;;;;;;;1.40;0.93;;;;;;;;;;5032369;28;20431;-71
2021/01/24 05:45:44;;;;;;;1.60;0.97;;;;;;;;;;5031983;28;20455;-71
2021/01/24 05:48:10;;;;;;;1.50;1.20;;;;;;;;;;5031910;28;20459;-71
2021/01/24 05:50:36;;;;;;;3.40;1.20;;;;;;;;;;5031951;28;20519;-71
2021/01/24 05:53:05;;;;;;;1.37;0.97;;;;;;;;;;5032530;28;20452;-71
2021/01/24 05:55:35;;;;;;;1.73;1.17;;;;;;;;;;5031834;28;20445;-71
2021/01/24 05:58:18;;;;;;;1.70;1.10;;;;;;;;;;5032896;28;20828;-72
2021/01/24 06:00:44;;;;;;;1.40;1.10;;;;;;;;;;5031914;28;20424;-71
2021/01/24 06:03:11;;;;;;;1.50;1.20;;;;;;;;;;5032603;28;20444;-71
2021/01/24 06:05:37;;;;;;;1.40;1.07;;;;;;;;;;5031708;28;20540;-70
2021/01/24 06:08:04;;;;;;;1.70;1.10;;;;;;;;;;5032569;28;20409;-72
2021/01/24 06:10:30;;;;;;;1.73;1.07;;;;;;;;;;5031665;28;20524;-71
2021/01/24 06:12:59;;;;;;;3.20;1.00;;;;;;;;;;5032203;28;20407;-71
2021/01/24 06:15:27;;;;;;;1.40;1.00;;;;;;;;;;5031543;28;20585;-70
2021/01/24 06:17:55;;;;;;;2.50;1.30;;;;;;;;;;5032146;28;20923;-72
2021/01/24 06:20:22;;;;;;;1.40;1.00;;;;;;;;;;5031048;28;20395;-70
2021/01/24 06:22:48;;;;;;;1.60;1.20;;;;;;;;;;5029980;28;20456;-71
2021/01/24 06:25:29;;;;;;;2.30;1.20;;;;;;;;;;5033500;28;20429;-71
2021/01/24 06:28:04;;;;;;;1.60;1.10;;;;;;;;;;5016747;28;20467;-72
2021/01/24 06:30:31;;;;;;;1.57;1.10;;;;;;;;;;5019222;28;20511;-70
2021/01/24 06:33:11;;;;;;;1.50;1.00;;;;;;;;;;5034992;28;20433;-71
2021/01/24 06:35:43;;;;;;;1.50;1.10;;;;;;;;;;5035443;28;20803;-71
2021/01/24 06:38:09;;;;;;;1.67;0.97;;;;;;;;;;5036085;28;20870;-72
2021/01/24 06:40:42;;;;;;;1.50;1.10;;;;;;;;;;5033722;28;20437;-70
2021/01/24 06:43:08;;;;;;;1.80;1.20;;;;;;;;;;5036371;28;20392;-71
2021/01/24 06:45:37;;;;;;;1.40;1.10;;;;;;;;;;5035460;28;20791;-71
2021/01/24 06:48:04;;;;;;;1.67;1.00;;;;;;;;;;5036285;28;20865;-72
2021/01/24 06:50:36;;;;;;;1.50;1.10;;;;;;;;;;5035000;28;20439;-71
2021/01/24 06:53:06;;;;;;;1.50;1.17;;;;;;;;;;5035735;28;20424;-71
2021/01/24 06:55:32;;;;;;;2.23;1.20;;;;;;;;;;5033147;28;20450;-71
2021/01/24 06:57:58;;;;;;;1.50;1.10;;;;;;;;;;5035925;28;20886;-72
2021/01/24 07:00:25;;;;;;;1.77;1.33;;;;;;;;;;5035249;28;21069;-71
2021/01/24 07:02:51;;;;;;;1.53;1.27;;;;;;;;;;5035143;28;20458;-71
2021/01/24 07:05:17;;;;;;;1.30;1.00;;;;;;;;;;5035086;28;20440;-71
2021/01/24 07:07:46;;;;;;;1.60;1.00;;;;;;;;;;5034726;28;20436;-71
2021/01/24 07:10:32;;;;;;;1.83;1.10;;;;;;;;;;5035317;28;21042;-72
2021/01/24 07:12:58;;;;;;;1.60;1.40;;;;;;;;;;5034908;28;20416;-71
2021/01/24 07:15:24;;;;;;;1.90;1.30;;;;;;;;;;5035222;28;20528;-72
2021/01/24 07:18:01;;;;;;;1.50;1.03;;;;;;;;;;5033225;28;20432;-72
2021/01/24 07:20:27;;;;;;;1.90;1.20;;;;;;;;;;5034583;28;20479;-71
2021/01/24 07:22:56;;;;;;;1.60;1.20;;;;;;;;;;5033613;28;20833;-71
2021/01/24 07:25:23;;;;;;;1.87;1.10;;;;;;;;;;5035061;28;20449;-71
2021/01/24 07:27:52;;;;;;;2.17;1.10;;;;;;;;;;5034608;28;20434;-70
2021/01/24 07:30:22;;;;;;;1.40;0.90;;;;;;;;;;5033299;28;20549;-71
2021/01/24 07:32:48;;;;;;;2.17;1.20;;;;;;;;;;5033895;28;20778;-71
2021/01/24 07:35:15;;;;;;;1.67;1.33;;;;;;;;;;5034496;28;20423;-72
2021/01/24 07:37:41;;;;;;;1.50;1.13;;;;;;;;;;5034043;28;20430;-72
2021/01/24 07:40:08;;;;;;;1.70;1.10;;;;;;;;;;5035016;28;20404;-71
2021/01/24 07:42:33;;;;;;;1.90;1.23;;;;;;;;;;5033696;28;20439;-70
2021/01/24 07:44:59;;;;;;;1.37;1.00;;;;;;;;;;5034652;28;20490;-71
2021/01/24 07:47:26;;;;;;;1.60;1.20;;;;;;;;;;5033891;28;20848;-71
2021/01/24 07:49:51;;;;;;;2.27;1.20;;;;;;;;;;5034629;28;20954;-71
2021/01/24 07:52:19;;;;;;;2.00;1.00;;;;;;;;;;5033842;28;20436;-70
2021/01/24 07:54:45;;;;;;;1.60;1.30;;;;;;;;;;5033432;28;20458;-70
2021/01/24 07:57:12;;;;;;;1.63;1.03;;;;;;;;;;5032876;28;20492;-70
2021/01/24 07:59:38;;;;;;;1.70;1.17;;;;;;;;;;5034489;28;20494;-71
2021/01/24 08:02:04;;;;;;;1.40;1.00;;;;;;;;;;5032794;28;20820;-70
2021/01/24 08:04:33;;;;;;;1.83;1.37;;;;;;;;;;5033630;28;20529;-71
2021/01/24 08:06:59;;;;;;;2.23;1.20;;;;;;;;;;5033461;28;20437;-71
2021/01/24 08:09:25;;;;;;;1.60;1.10;;;;;;;;;;5033786;28;20789;-71
2021/01/24 08:11:51;;;;;;;1.50;1.20;;;;;;;;;;5033664;28;20790;-71
2021/01/24 08:14:17;;;;;;;1.50;1.23;;;;;;;;;;5034225;28;20584;-72
2021/01/24 08:16:45;;;;;;;4.43;1.47;;;;;;;;;;5032956;28;20918;-72
2021/01/24 08:19:13;;;;;;;1.83;1.40;;;;;;;;;;5033792;28;20917;-71
2021/01/24 08:21:39;;;;;;;1.60;1.20;;;;;;;;;;5027033;28;20427;-71
2021/01/24 08:24:09;;;;;;;2.00;1.40;;;;;;;;;;5014608;28;20406;-72
2021/01/24 08:26:36;;;;;;;2.67;1.70;;;;;;;;;;5018188;28;20437;-72
2021/01/24 08:29:02;;;;;;;2.20;1.37;;;;;;;;;;5033834;28;20404;-72
2021/01/24 08:31:29;;;;;;;1.40;1.10;;;;;;;;;;5032721;28;20508;-72
2021/01/24 08:33:55;;;;;;;1.80;1.30;;;;;;;;;;5033814;28;20401;-72
2021/01/24 08:36:26;;;;;;;1.50;1.10;;;;;;;;;;5030789;28;20483;-72
2021/01/24 08:38:59;;;;;;;4.50;1.60;;;;;;;;;;5033730;28;20411;-72
2021/01/24 08:41:28;;;;;;;1.43;1.10;;;;;;;;;;5032991;28;20994;-72
2021/01/24 08:44:11;;;;;;;1.97;1.07;;;;;;;;;;5033962;28;20414;-73
2021/01/24 08:46:39;;;;;;;1.40;1.13;;;;;;;;;;5032624;28;20936;-72
2021/01/24 08:49:12;;;;;;;2.20;1.57;;;;;;;;;;5033045;28;20405;-73
2021/01/24 08:51:41;;;;;;;3.47;1.13;;;;;;;;;;5032366;28;20467;-72
2021/01/24 08:54:14;;;;;;;1.40;0.93;;;;;;;;;;5033312;28;20443;-73
2021/01/24 08:56:40;;;;;;;2.07;1.37;;;;;;;;;;5032560;28;20424;-72
2021/01/24 08:59:16;;;;;;;4.27;1.30;;;;;;;;;;5033787;28;20400;-72
2021/01/24 09:01:46;;;;;;;1.90;1.13;;;;;;;;;;5032432;28;20900;-72
2021/01/24 09:04:22;;;;;;;1.50;1.20;;;;;;;;;;5033294;28;20394;-73
2021/01/24 09:07:00;;;;;;;2.10;1.20;;;;;;;;;;5031418;28;20454;-72
2021/01/24 09:09:26;;;;;;;1.30;0.90;;;;;;;;;;5031311;28;20408;-74
2021/01/24 09:11:52;;;;;;;2.47;1.60;;;;;;;;;;5029852;28;20428;-73
2021/01/24 09:14:18;;;;;;;1.63;1.10;;;;;;;;;;5032671;28;20512;-74
2021/01/24 09:16:44;;;;;;;3.43;1.43;;;;;;;;;;5031089;28;20421;-73
2021/01/24 09:19:10;;;;;;;2.03;1.13;;;;;;;;;;5031532;28;20410;-73
2021/01/24 09:21:36;;;;;;;1.90;1.40;;;;;;;;;;5031041;28;20418;-73
2021/01/24 09:24:02;;;;;;;1.90;1.30;;;;;;;;;;5032998;28;20529;-74
2021/01/24 09:26:28;;;;;;;2.03;1.40;;;;;;;;;;5031997;28;20988;-73
2021/01/24 09:28:54;;;;;;;2.00;1.47;;;;;;;;;;5032837;28;20916;-74
2021/01/24 09:31:20;;;;;;;2.57;1.43;;;;;;;;;;5031413;28;20447;-73
2021/01/24 09:33:46;;;;;;;8.83;1.80;;;;;;;;;;5032969;28;20414;-74
2021/01/24 09:36:12;;;;;;;1.70;1.30;;;;;;;;;;5032513;28;20457;-73
2021/01/24 09:38:38;;;;;;;1.80;1.20;;;;;;;;;;5032790;28;20785;-74
2021/01/24 09:41:04;;;;;;;3.33;1.67;;;;;;;;;;5032664;28;20411;-73
2021/01/24 09:43:30;;;;;;;2.10;1.40;;;;;;;;;;5031471;28;21021;-73
2021/01/24 09:45:56;;;;;;;2.10;1.50;;;;;;;;;;5032641;28;20434;-74
2021/01/24 09:48:22;;;;;;;2.43;1.50;;;;;;;;;;5031783;28;20452;-73
2021/01/24 09:50:48;;;;;;;1.90;1.37;;;;;;;;;;5032227;28;20545;-73
2021/01/24 09:53:14;;;;;;;2.33;1.50;;;;;;;;;;5031789;28;20530;-73
2021/01/24 09:55:40;;;;;;;1.97;1.53;;;;;;;;;;5032536;28;20511;-73
2021/01/24 09:58:06;;;;;;;2.73;1.70;;;;;;;;;;5032060;28;20739;-73
2021/01/24 10:00:33;;;;;;;4.10;1.60;;;;;;;;;;5036477;28;20425;-73
2021/01/24 10:02:59;;;;;;;2.63;1.63;;;;;;;;;;5035768;28;20437;-73
2021/01/24 10:05:25;;;;;;;2.33;1.60;;;;;;;;;;5036478;28;20515;-74
2021/01/24 10:07:51;;;;;;;1.60;1.23;;;;;;;;;;5035557;28;20975;-73
2021/01/24 10:10:17;;;;;;;1.70;1.40;;;;;;;;;;5036134;28;20449;-73
2021/01/24 10:12:43;;;;;;;2.87;1.60;;;;;;;;;;5035003;28;20872;-73
2021/01/24 10:15:10;;;;;;;4.33;1.53;;;;;;;;;;5036330;28;20481;-74
2021/01/24 10:17:36;;;;;;;5.30;1.60;;;;;;;;;;5034174;28;20428;-73
2021/01/24 10:20:03;;;;;;;3.33;1.77;;;;;;;;;;5036262;28;20408;-73
2021/01/24 10:22:29;;;;;;;2.60;2.17;;;;;;;;;;5035243;28;20440;-73
2021/01/24 10:24:55;;;;;;;5.33;1.63;;;;;;;;;;5036475;28;20441;-74
2021/01/24 10:27:21;;;;;;;2.37;1.80;;;;;;;;;;5034887;28;20430;-73
2021/01/24 10:29:47;;;;;;;2.27;1.60;;;;;;;;;;5036279;28;20539;-74
2021/01/24 10:32:13;;;;;;;2.90;1.63;;;;;;;;;;5034574;28;20431;-73
2021/01/24 10:34:39;;;;;;;5.77;1.43;;;;;;;;;;5036481;28;20437;-74
2021/01/24 10:37:05;;;;;;;1.60;1.27;;;;;;;;;;5035416;28;20423;-73
2021/01/24 10:39:30;;;;;;;4.40;2.10;;;;;;;;;;5036082;28;20404;-74
2021/01/24 10:41:57;;;;;;;3.63;2.00;;;;;;;;;;5035109;28;20506;-73
2021/01/24 10:44:23;;;;;;;2.33;1.70;;;;;;;;;;5035812;28;20451;-74
2021/01/24 10:46:49;;;;;;;2.07;1.50;;;;;;;;;;5035769;28;20482;-73
2021/01/24 10:49:15;;;;;;;2.93;1.93;;;;;;;;;;5036065;28;20493;-74
2021/01/24 10:51:41;;;;;;;3.23;1.60;;;;;;;;;;5033215;28;20448;-73
2021/01/24 10:54:06;;;;;;;1.90;1.63;;;;;;;;;;5035718;28;20402;-73
2021/01/24 10:56:32;;;;;;;4.13;1.90;;;;;;;;;;5035766;28;20949;-74
2021/01/24 10:58:59;;;;;;;5.20;1.67;;;;;;;;;;5034939;28;20458;-73
2021/01/24 11:01:24;;;;;;;1.73;1.27;;;;;;;;;;5033626;28;20430;-73
2021/01/24 11:03:50;;;;;;;2.73;1.63;;;;;;;;;;5033186;28;20497;-73
2021/01/24 11:06:16;;;;;;;3.30;2.23;;;;;;;;;;5034253;28;20856;-74
2021/01/24 11:08:43;;;;;;;1.73;1.27;;;;;;;;;;5034413;28;20423;-73
2021/01/24 11:11:09;;;;;;;1.97;1.40;;;;;;;;;;5034709;28;20456;-74
2021/01/24 11:13:34;;;;;;;1.87;1.47;;;;;;;;;;5034817;28;20451;-74
2021/01/24 11:16:00;;;;;;;2.73;1.33;;;;;;;;;;5043579;23;20491;-86
2021/01/24 11:18:27;;;;;;;3.30;1.50;;;;;;;;;;5043112;28;20404;-86
2021/01/24 11:20:53;;;;;;;2.53;1.63;;;;;;;;;;5053006;28;20418;-85
2021/01/24 11:23:19;;;;;;;4.80;1.57;;;;;;;;;;5051087;28;20433;-86
2021/01/24 11:25:45;;;;;;;2.07;1.80;;;;;;;;;;5044765;28;20428;-84
2021/01/24 11:28:11;;;;;;;3.33;1.53;;;;;;;;;;5040728;28;21015;-85
2021/01/24 11:30:37;;;;;;;1.87;1.17;;;;;;;;;;5037852;28;20486;-87
2021/01/24 11:33:03;;;;;;;1.83;1.30;;;;;;;;;;5045127;28;20914;-86
2021/01/24 11:35:30;;;;;;;2.17;1.50;;;;;;;;;;5043084;28;20801;-86
2021/01/24 11:37:56;;;;;;;2.80;2.20;;;;;;;;;;5043397;28;20429;-86
2021/01/24 11:40:21;;;;;;;1.80;1.40;;;;;;;;;;5042404;28;20431;-86
2021/01/24 11:42:47;;;;;;;1.50;1.20;;;;;;;;;;5036432;28;20423;-86
2021/01/24 11:45:14;;;;;;;2.67;2.20;;;;;;;;;;5022422;28;20411;-86
2021/01/24 11:47:40;;;;;;;2.17;1.37;;;;;;;;;;5042408;28;20428;-85
2021/01/24 11:50:06;;;;;;;3.70;1.60;;;;;;;;;;5042753;28;20472;-86
2021/01/24 11:52:33;;;;;;;2.03;1.23;;;;;;;;;;5040819;28;20463;-86
2021/01/24 11:54:58;;;;;;;2.70;1.80;;;;;;;;;;5042214;28;20411;-86
2021/01/24 11:57:24;;;;;;;3.77;1.60;;;;;;;;;;5039660;28;20423;-85
2021/01/24 11:59:51;;;;;;;2.13;1.50;;;;;;;;;;5042659;28;20421;-85
2021/01/24 12:02:17;;;;;;;2.80;1.97;;;;;;;;;;5039777;28;20434;-85
2021/01/24 12:04:43;;;;;;;3.23;1.50;;;;;;;;;;5035774;28;20420;-84
2021/01/24 12:07:08;;;;;;;1.70;1.13;;;;;;;;;;5036058;28;20428;-84
2021/01/24 12:09:34;;;;;;;2.27;1.40;;;;;;;;;;5037260;28;20759;-84
2021/01/24 12:12:00;;;;;;;4.03;1.63;;;;;;;;;;5036959;28;20445;-84
2021/01/24 12:14:27;;;;;;;2.03;1.50;;;;;;;;;;5051244;28;20412;-85
2021/01/24 12:16:53;;;;;;;2.47;1.60;;;;;;;;;;5057139;28;20422;-83
2021/01/24 12:19:18;;;;;;;1.90;1.47;;;;;;;;;;5047511;28;20418;-85
2021/01/24 12:21:44;;;;;;;2.30;1.43;;;;;;;;;;5043242;28;20939;-84
2021/01/24 12:24:10;;;;;;;4.30;1.67;;;;;;;;;;5044970;28;20404;-85
2021/01/24 12:26:37;;;;;;;3.03;1.40;;;;;;;;;;5046395;28;20453;-85
2021/01/24 12:29:03;;;;;;;1.90;1.40;;;;;;;;;;5044804;28;20433;-85
2021/01/24 12:31:29;;;;;;;4.17;2.10;;;;;;;;;;5041769;28;20497;-85
2021/01/24 12:33:55;;;;;;;2.33;1.50;;;;;;;;;;5044052;28;20401;-85
2021/01/24 12:36:21;;;;;;;5.07;1.97;;;;;;;;;;5042258;28;20524;-85
2021/01/24 12:38:47;;;;;;;2.93;1.70;;;;;;;;;;5043603;28;20406;-85
2021/01/24 12:41:13;;;;;;;2.87;1.60;;;;;;;;;;5043140;28;20506;-85
2021/01/24 12:43:39;;;;;;;1.70;1.30;;;;;;;;;;5043913;28;20467;-85
2021/01/24 12:46:05;;;;;;;4.60;2.17;;;;;;;;;;5038492;28;20927;-85
2021/01/24 12:48:32;;;;;;;9.57;2.40;;;;;;;;;;5024202;28;20424;-85
2021/01/24 12:50:59;;;;;;;2.90;1.60;;;;;;;;;;5031998;28;20566;-85
2021/01/24 12:53:25;;;;;;;3.80;1.80;;;;;;;;;;5023172;28;20476;-85
2021/01/24 12:55:51;;;;;;;2.47;1.30;;;;;;;;;;5022740;28;20938;-85
2021/01/24 12:58:17;;;;;;;2.10;1.30;;;;;;;;;;5043053;28;20966;-85
2021/01/24 13:00:43;;;;;;;3.63;1.63;;;;;;;;;;5046021;28;20432;-85
2021/01/24 13:03:09;;;;;;;2.10;1.40;;;;;;;;;;5047205;28;20440;-85
2021/01/24 13:05:35;;;;;;;2.47;1.60;;;;;;;;;;5031754;28;20860;-84
2021/01/24 13:08:04;;;;;;;3.23;1.50;;;;;;;;;;5035244;28;20446;-84
2021/01/24 13:10:31;;;;;;;2.97;1.30;;;;;;;;;;5038881;28;20476;-85
2021/01/24 13:12:57;;;;;;;3.83;1.53;;;;;;;;;;5037715;28;20453;-84
2021/01/24 13:15:23;;;;;;;2.40;2.17;;;;;;;;;;5037950;28;20517;-84
2021/01/24 13:17:49;;;;;;;2.83;1.60;;;;;;;;;;5034251;28;20418;-84
2021/01/24 13:20:15;;;;;;;5.30;1.63;;;;;;;;;;5034952;28;20423;-85
2021/01/24 13:22:41;;;;;;;2.50;1.70;;;;;;;;;;5032315;28;20512;-85
2021/01/24 13:25:08;;;;;;;2.77;1.70;;;;;;;;;;5034492;28;20519;-85
2021/01/24 13:27:34;;;;;;;3.20;1.90;;;;;;;;;;5029711;28;20443;-85
2021/01/24 13:30:00;;;;;;;2.13;1.43;;;;;;;;;;5019297;28;20460;-84
2021/01/24 13:32:26;;;;;;;1.90;1.33;;;;;;;;;;5029546;28;20428;-85
2021/01/24 13:34:52;;;;;;;3.10;1.50;;;;;;;;;;5038863;28;20403;-84
2021/01/24 13:37:18;;;;;;;2.53;1.50;;;;;;;;;;5038093;28;20461;-84
2021/01/24 13:39:44;;;;;;;2.17;1.50;;;;;;;;;;5037674;28;20441;-85
2021/01/24 13:42:10;;;;;;;2.03;1.63;;;;;;;;;;5038029;28;20447;-84
2021/01/24 13:44:38;;;;;;;2.40;1.57;;;;;;;;;;5039201;28;20955;-84
2021/01/24 13:47:04;;;;;;;3.80;2.00;;;;;;;;;;5036629;28;20432;-85
2021/01/24 13:49:30;;;;;;;2.53;1.90;;;;;;;;;;5038006;28;20778;-85
2021/01/24 13:51:56;;;;;;;2.00;1.67;;;;;;;;;;5038639;28;20444;-85
2021/01/24 13:54:22;;;;;;;2.70;1.87;;;;;;;;;;5039091;28;20424;-85
2021/01/24 13:56:48;;;;;;;2.20;1.67;;;;;;;;;;5036876;28;20426;-85
2021/01/24 13:59:14;;;;;;;5.20;1.90;;;;;;;;;;5030044;28;20443;-85
2021/01/24 14:01:40;;;;;;;2.23;1.43;;;;;;;;;;5037366;28;20426;-86
2021/01/24 14:04:07;;;;;;;3.80;1.97;;;;;;;;;;5039961;28;20561;-85
2021/01/24 14:06:33;;;;;;;4.13;1.60;;;;;;;;;;5040144;28;20516;-84
2021/01/24 14:08:59;;;;;;;5.23;1.70;;;;;;;;;;5035542;28;20422;-84
2021/01/24 14:11:26;;;;;;;3.97;1.60;;;;;;;;;;5035540;28;20476;-85
2021/01/24 14:13:52;;;;;;;2.57;1.90;;;;;;;;;;5029414;28;20427;-84
2021/01/24 14:16:18;;;;;;;3.40;1.90;;;;;;;;;;5041394;28;20799;-84
2021/01/24 14:18:45;;;;;;;2.80;1.50;;;;;;;;;;5045445;28;20444;-85
2021/01/24 14:21:11;;;;;;;3.00;1.83;;;;;;;;;;5057551;28;20203;-84
2021/01/24 14:23:37;;;;;;;3.33;2.10;;;;;;;;;;5045426;28;20430;-84
2021/01/24 14:26:03;;;;;;;2.90;1.93;;;;;;;;;;5047556;28;20499;-84
2021/01/24 14:28:29;;;;;;;2.20;1.40;;;;;;;;;;5038183;28;20470;-84
2021/01/24 14:30:55;;;;;;;1.70;1.23;;;;;;;;;;5037696;28;20469;-85
2021/01/24 14:33:21;;;;;;;4.30;1.50;;;;;;;;;;5036965;28;20424;-84
2021/01/24 14:35:47;;;;;;;2.40;1.70;;;;;;;;;;5036645;28;20909;-84
2021/01/24 14:38:16;;;;;;;3.50;1.40;;;;;;;;;;5040463;28;20425;-84
2021/01/24 14:40:42;;;;;;;3.43;2.07;;;;;;;;;;5041847;28;20443;-85
2021/01/24 14:43:08;;;;;;;7.87;4.43;;;;;;;;;;5043720;28;20464;-85